createdAt,value
2023-12-05T00:00:25.154Z,101254.09
2023-12-05T00:02:55.355Z,101252.52
2023-12-05T00:05:05.496Z,101257.64
2023-12-05T00:07:15.442Z,101251.91
2023-12-05T00:09:25.540Z,101246.10
2023-12-05T00:11:36.971Z,101253.64
2023-12-05T00:13:47.051Z,101245.22
2023-12-05T00:15:57.410Z,101249.62
2023-12-05T00:18:08.238Z,101253.45
2023-12-05T00:20:18.698Z,101252.84
2023-12-05T00:22:31.155Z,101245.58
2023-12-05T00:24:39.475Z,101242.93
2023-12-05T00:26:49.746Z,101238.98
2023-12-05T00:28:59.816Z,101236.19
2023-12-05T00:31:09.861Z,101247.19
2023-12-05T00:33:20.163Z,101233.70
2023-12-05T00:35:30.158Z,101234.20
2023-12-05T00:37:40.113Z,101235.73
2023-12-05T00:39:49.939Z,101235.56
2023-12-05T00:42:00.461Z,101243.48
2023-12-05T00:44:10.871Z,101230.55
2023-12-05T00:46:20.601Z,101235.80
2023-12-05T00:48:30.566Z,101237.48
2023-12-05T00:50:46.105Z,101235.10
2023-12-05T00:52:56.567Z,101246.15
2023-12-05T00:55:07.846Z,101240.36
2023-12-05T00:57:17.928Z,101241.76
2023-12-05T00:59:28.263Z,101234.70
2023-12-05T01:01:38.336Z,101240.51
2023-12-05T01:03:48.157Z,101228.64
2023-12-05T01:05:58.304Z,101245.92
2023-12-05T01:08:09.037Z,101234.84
2023-12-05T01:10:19.277Z,101236.88
2023-12-05T01:12:29.720Z,101238.95
2023-12-05T01:14:42.673Z,101235.02
2023-12-05T01:16:52.916Z,101238.45
2023-12-05T01:19:03.010Z,101229.44
2023-12-05T01:21:13.749Z,101225.12
2023-12-05T01:23:23.913Z,101223.76
2023-12-05T01:25:34.199Z,101220.30
2023-12-05T01:27:44.495Z,101226.30
2023-12-05T01:29:54.744Z,101224.80
2023-12-05T01:32:05.841Z,101220.91
2023-12-05T01:34:15.855Z,101221.61
2023-12-05T01:36:28.724Z,101226.26
2023-12-05T01:38:39.404Z,101220.86
2023-12-05T01:40:49.444Z,101215.88
2023-12-05T01:43:00.214Z,101216.92
2023-12-05T01:45:12.404Z,101213.71
2023-12-05T01:47:22.721Z,101221.20
2023-12-05T01:49:36.549Z,101212.84
2023-12-05T01:51:47.304Z,101206.21
2023-12-05T01:53:58.670Z,101205.98
2023-12-05T01:56:13.656Z,101203.67
2023-12-05T01:58:24.391Z,101195.45
2023-12-05T02:00:34.826Z,101202.41
2023-12-05T02:02:45.212Z,101192.58
2023-12-05T02:04:55.590Z,101204.27
2023-12-05T02:07:07.796Z,101203.60
2023-12-05T02:09:18.837Z,101194.80
2023-12-05T02:11:29.081Z,101190.95
2023-12-05T02:13:40.052Z,101193.98
2023-12-05T02:15:56.966Z,101175.78
2023-12-05T02:18:15.942Z,101184.80
2023-12-05T02:20:31.686Z,101178.95
2023-12-05T02:23:05.539Z,101179.93
2023-12-05T02:25:27.999Z,101190.73
2023-12-05T02:27:41.382Z,101188.23
2023-12-05T02:29:54.859Z,101182.98
2023-12-05T02:32:05.010Z,101182.77
2023-12-05T02:34:15.644Z,101181.51
2023-12-05T02:36:35.486Z,101186.20
2023-12-05T02:38:54.947Z,101180.58
2023-12-05T02:41:10.990Z,101170.63
2023-12-05T02:43:28.352Z,101172.58
2023-12-05T02:45:41.523Z,101169.38
2023-12-05T02:47:52.924Z,101172.37
2023-12-05T02:50:02.768Z,101173.15
2023-12-05T02:52:13.017Z,101168.55
2023-12-05T02:54:23.451Z,101173.44
2023-12-05T02:56:33.416Z,101167.55
2023-12-05T02:58:43.315Z,101166.04
2023-12-05T03:00:53.461Z,101174.69
2023-12-05T03:03:03.373Z,101165.52
2023-12-05T03:05:14.161Z,101176.42
2023-12-05T03:07:24.442Z,101179.77
2023-12-05T03:09:34.459Z,101181.52
2023-12-05T03:11:44.743Z,101175.84
2023-12-05T03:13:54.894Z,101179.73
2023-12-05T03:16:05.976Z,101184.23
2023-12-05T03:18:16.189Z,101180.38
2023-12-05T03:20:26.239Z,101179.19
2023-12-05T03:22:36.464Z,101190.92
2023-12-05T03:24:46.638Z,101178.06
2023-12-05T03:26:56.861Z,101179.48
2023-12-05T03:29:07.253Z,101196.94
2023-12-05T03:31:17.278Z,101188.25
2023-12-05T03:33:27.134Z,101187.59
2023-12-05T03:35:37.079Z,101197.37
2023-12-05T03:37:47.617Z,101179.98
2023-12-05T03:39:57.491Z,101192.70
2023-12-05T03:42:07.645Z,101189.61
2023-12-05T03:44:17.756Z,101189.20
2023-12-05T03:46:28.102Z,101189.08
2023-12-05T03:48:39.138Z,101194.20
2023-12-05T03:50:49.691Z,101188.33
2023-12-05T03:52:59.772Z,101196.71
2023-12-05T03:55:10.555Z,101178.39
2023-12-05T03:57:21.667Z,101189.85
2023-12-05T03:59:32.183Z,101183.57
2023-12-05T04:01:42.888Z,101189.92
2023-12-05T04:03:52.958Z,101185.61
2023-12-05T04:06:03.686Z,101185.84
2023-12-05T04:08:13.783Z,101180.38
2023-12-05T04:10:25.089Z,101185.08
2023-12-05T04:12:36.094Z,101185.91
2023-12-05T04:14:45.977Z,101190.41
2023-12-05T04:16:56.338Z,101201.66
2023-12-05T04:19:06.628Z,101197.20
2023-12-05T04:21:16.640Z,101197.64
2023-12-05T04:23:26.645Z,101199.52
2023-12-05T04:25:36.919Z,101186.77
2023-12-05T04:27:47.312Z,101191.47
2023-12-05T04:29:57.171Z,101200.60
2023-12-05T04:32:08.261Z,101197.40
2023-12-05T04:34:18.359Z,101186.67
2023-12-05T04:36:28.316Z,101178.02
2023-12-05T04:38:39.183Z,101185.95
2023-12-05T04:40:49.791Z,101182.82
2023-12-05T04:43:01.317Z,101193.90
2023-12-05T04:45:13.113Z,101185.52
2023-12-05T04:47:23.899Z,101190.93
2023-12-05T04:49:34.086Z,101183.83
2023-12-05T04:51:45.151Z,101183.31
2023-12-05T04:53:55.391Z,101178.59
2023-12-05T04:56:05.458Z,101188.83
2023-12-05T04:58:16.237Z,101191.48
2023-12-05T05:00:26.376Z,101191.66
2023-12-05T05:02:37.080Z,101178.48
2023-12-05T05:04:47.138Z,101184.48
2023-12-05T05:06:56.989Z,101174.55
2023-12-05T05:09:08.936Z,101182.59
2023-12-05T05:11:18.898Z,101175.23
2023-12-05T05:13:28.740Z,101180.00
2023-12-05T05:15:38.958Z,101188.48
2023-12-05T05:17:49.790Z,101162.49
2023-12-05T05:19:59.814Z,101163.74
2023-12-05T05:22:10.220Z,101162.36
2023-12-05T05:24:20.521Z,101168.92
2023-12-05T05:26:30.374Z,101164.88
2023-12-05T05:28:40.090Z,101175.55
2023-12-05T05:30:50.507Z,101171.80
2023-12-05T05:33:00.698Z,101181.25
2023-12-05T05:35:12.588Z,101189.43
2023-12-05T05:37:22.560Z,101181.23
2023-12-05T05:39:32.407Z,101180.96
2023-12-05T05:41:42.291Z,101197.79
2023-12-05T05:43:51.977Z,101181.70
2023-12-05T05:46:03.506Z,101188.88
2023-12-05T05:48:14.460Z,101191.80
2023-12-05T05:50:24.524Z,101183.28
2023-12-05T05:52:34.471Z,101173.68
2023-12-05T05:54:44.888Z,101204.33
2023-12-05T05:56:54.682Z,101197.63
2023-12-05T05:59:04.422Z,101199.02
2023-12-05T06:01:16.402Z,101212.52
2023-12-05T06:03:28.204Z,101223.73
2023-12-05T06:05:38.341Z,101221.17
2023-12-05T06:07:48.374Z,101204.41
2023-12-05T06:09:58.942Z,101212.43
2023-12-05T06:12:11.094Z,101231.13
2023-12-05T06:14:20.923Z,101243.96
2023-12-05T06:16:31.028Z,101257.06
2023-12-05T06:18:43.667Z,101248.73
2023-12-05T06:20:54.320Z,101242.11
2023-12-05T06:23:04.327Z,101243.67
2023-12-05T06:25:14.856Z,101265.96
2023-12-05T06:27:25.432Z,101259.36
2023-12-05T06:29:35.191Z,101254.00
2023-12-05T06:31:45.005Z,101253.16
2023-12-05T06:33:55.138Z,101268.48
2023-12-05T06:36:05.206Z,101259.80
2023-12-05T06:38:15.167Z,101248.23
2023-12-05T06:40:25.690Z,101248.08
2023-12-05T06:42:36.477Z,101251.77
2023-12-05T06:44:47.183Z,101261.05
2023-12-05T06:46:57.260Z,101263.05
2023-12-05T06:49:07.805Z,101255.17
2023-12-05T06:51:23.939Z,101243.08
2023-12-05T06:53:37.266Z,101269.52
2023-12-05T06:55:49.968Z,101260.54
2023-12-05T06:57:59.858Z,101247.51
2023-12-05T07:00:12.949Z,101272.91
2023-12-05T07:02:22.571Z,101281.98
2023-12-05T07:04:32.600Z,101264.53
2023-12-05T07:06:45.107Z,101283.53
2023-12-05T07:08:55.039Z,101281.13
2023-12-05T07:11:05.054Z,101283.32
2023-12-05T07:13:15.128Z,101268.91
2023-12-05T07:15:25.252Z,101276.92
2023-12-05T07:17:35.140Z,101295.21
2023-12-05T07:19:46.430Z,101293.81
2023-12-05T07:21:56.535Z,101294.77
2023-12-05T07:24:06.762Z,101287.31
2023-12-05T07:26:16.943Z,101310.47
2023-12-05T07:28:27.259Z,101310.52
2023-12-05T07:30:38.183Z,101312.26
2023-12-05T07:32:48.182Z,101300.23
2023-12-05T07:34:59.375Z,101308.16
2023-12-05T07:37:10.391Z,101293.86
2023-12-05T07:39:20.498Z,101303.61
2023-12-05T07:41:31.478Z,101310.19
2023-12-05T07:43:41.382Z,101315.04
2023-12-05T07:45:52.820Z,101325.10
2023-12-05T07:48:03.799Z,101323.54
2023-12-05T07:50:17.560Z,101311.33
2023-12-05T07:52:28.144Z,101309.96
2023-12-05T07:54:38.561Z,101303.78
2023-12-05T07:56:49.891Z,101302.22
2023-12-05T07:59:01.270Z,101303.70
2023-12-05T08:01:12.366Z,101302.94
2023-12-05T08:03:22.583Z,101299.38
2023-12-05T08:05:33.299Z,101285.16
2023-12-05T08:07:43.822Z,101304.30
2023-12-05T08:09:53.854Z,101303.95
2023-12-05T08:12:04.292Z,101296.06
2023-12-05T08:14:14.682Z,101297.98
2023-12-05T08:16:24.455Z,101287.52
2023-12-05T08:18:35.064Z,101312.31
2023-12-05T08:20:46.121Z,101315.09
2023-12-05T08:22:56.211Z,101304.54
2023-12-05T08:25:09.128Z,101300.08
2023-12-05T08:27:19.362Z,101272.84
2023-12-05T08:29:29.351Z,101270.63
2023-12-05T08:31:39.178Z,101283.72
2023-12-05T08:33:49.797Z,101292.44
2023-12-05T08:35:59.832Z,101283.44
2023-12-05T08:38:09.830Z,101276.73
2023-12-05T08:40:20.409Z,101285.09
2023-12-05T08:42:31.706Z,101277.70
2023-12-05T08:44:41.441Z,101266.62
2023-12-05T08:46:51.749Z,101268.77
2023-12-05T08:49:01.770Z,101272.48
2023-12-05T08:51:14.784Z,101275.44
2023-12-05T08:53:25.823Z,101278.54
2023-12-05T08:55:35.808Z,101271.18
2023-12-05T08:57:46.485Z,101269.80
2023-12-05T08:59:56.848Z,101270.74
2023-12-05T09:02:07.197Z,101270.33
2023-12-05T09:04:17.556Z,101275.72
2023-12-05T09:06:27.721Z,101287.30
2023-12-05T09:08:38.258Z,101289.72
2023-12-05T09:10:48.558Z,101267.90
2023-12-05T09:12:58.926Z,101255.88
2023-12-05T09:15:09.748Z,101265.39
2023-12-05T09:17:22.184Z,101265.67
2023-12-05T09:19:32.455Z,101264.43
2023-12-05T09:21:42.806Z,101264.84
2023-12-05T09:23:52.955Z,101255.41
2023-12-05T09:26:02.846Z,101250.64
2023-12-05T09:28:12.900Z,101246.89
2023-12-05T09:30:23.248Z,101241.13
2023-12-05T09:32:33.687Z,101234.53
2023-12-05T09:34:43.542Z,101237.16
2023-12-05T09:36:53.728Z,101246.58
2023-12-05T09:39:04.140Z,101238.88
2023-12-05T09:41:15.976Z,101251.10
2023-12-05T09:43:28.826Z,101272.19
2023-12-05T09:45:43.732Z,101276.14
2023-12-05T09:47:55.942Z,101247.73
2023-12-05T09:50:06.868Z,101260.56
2023-12-05T09:52:17.802Z,101252.98
2023-12-05T09:54:28.608Z,101248.17
2023-12-05T09:56:39.380Z,101250.18
2023-12-05T09:58:50.231Z,101260.57
2023-12-05T10:01:03.231Z,101241.27
2023-12-05T10:03:16.898Z,101240.44
2023-12-05T10:05:29.150Z,101246.77
2023-12-05T10:07:39.872Z,101237.34
2023-12-05T10:09:51.297Z,101254.48
2023-12-05T10:12:02.060Z,101267.52
2023-12-05T10:14:12.285Z,101259.25
2023-12-05T10:16:24.923Z,101267.86
2023-12-05T10:18:33.072Z,101269.16
2023-12-05T10:20:43.305Z,101275.27
2023-12-05T10:22:54.189Z,101279.22
2023-12-05T10:25:04.025Z,101275.58
2023-12-05T10:27:14.989Z,101279.16
2023-12-05T10:29:39.133Z,101284.27
2023-12-05T10:31:49.202Z,101292.36
2023-12-05T10:34:08.812Z,101279.29
2023-12-05T10:36:19.884Z,101284.66
2023-12-05T10:38:31.532Z,101280.56
2023-12-05T10:40:58.075Z,101287.17
2023-12-05T10:43:08.610Z,101290.72
2023-12-05T10:45:19.142Z,101290.63
2023-12-05T10:47:29.951Z,101288.91
2023-12-05T10:49:43.167Z,101289.08
2023-12-05T10:51:53.322Z,101295.02
2023-12-05T10:54:04.308Z,101291.48
2023-12-05T10:56:19.160Z,101286.16
2023-12-05T10:58:30.032Z,101283.48
2023-12-05T11:00:41.824Z,101265.17
2023-12-05T11:02:55.258Z,101269.71
2023-12-05T11:05:08.166Z,101252.14
2023-12-05T11:07:18.391Z,101261.60
2023-12-05T11:09:29.163Z,101255.27
2023-12-05T11:11:43.431Z,101248.42
2023-12-05T11:13:54.329Z,101240.38
2023-12-05T11:16:10.592Z,101234.70
2023-12-05T11:18:28.666Z,101240.14
2023-12-05T11:21:01.787Z,101230.36
2023-12-05T11:23:44.960Z,101234.04
2023-12-05T11:26:07.679Z,101230.98
2023-12-05T11:28:29.709Z,101234.61
2023-12-05T11:30:58.854Z,101224.23
2023-12-05T11:33:21.256Z,101215.29
2023-12-05T11:35:35.624Z,101215.01
2023-12-05T11:38:07.952Z,101219.19
2023-12-05T11:40:17.975Z,101216.77
2023-12-05T11:42:28.181Z,101229.36
2023-12-05T11:44:42.227Z,101226.44
2023-12-05T11:46:55.705Z,101230.42
2023-12-05T11:49:06.882Z,101232.13
2023-12-05T11:51:18.531Z,101230.48
2023-12-05T11:53:28.694Z,101232.84
2023-12-05T11:55:39.641Z,101235.33
2023-12-05T11:57:50.691Z,101239.23
2023-12-05T12:00:01.602Z,101238.73
2023-12-05T12:02:14.427Z,101236.36
2023-12-05T12:04:25.901Z,101232.95
2023-12-05T12:06:38.082Z,101234.94
2023-12-05T12:08:50.587Z,101227.70
2023-12-05T12:11:00.605Z,101228.92
2023-12-05T12:13:10.816Z,101236.95
2023-12-05T12:15:22.588Z,101236.25
2023-12-05T12:17:32.879Z,101242.05
2023-12-05T12:19:47.035Z,101244.23
2023-12-05T12:21:57.528Z,101258.32
2023-12-05T12:24:08.340Z,101253.64
2023-12-05T12:26:19.408Z,101254.61
2023-12-05T12:28:34.599Z,101256.15
2023-12-05T12:30:46.058Z,101247.10
2023-12-05T12:33:01.378Z,101252.81
2023-12-05T12:35:16.436Z,101250.58
2023-12-05T12:37:31.983Z,101260.11
2023-12-05T12:39:46.168Z,101256.14
2023-12-05T12:41:56.318Z,101255.34
2023-12-05T12:44:08.924Z,101253.76
2023-12-05T12:46:18.842Z,101250.41
2023-12-05T12:48:29.811Z,101253.30
2023-12-05T12:50:40.155Z,101256.38
2023-12-05T12:52:50.481Z,101264.07
2023-12-05T12:55:01.184Z,101263.14
2023-12-05T12:57:12.478Z,101262.17
2023-12-05T12:59:22.575Z,101261.80
2023-12-05T13:01:34.002Z,101261.70
2023-12-05T13:03:48.044Z,101260.65
2023-12-05T13:05:58.270Z,101264.36
2023-12-05T13:08:09.837Z,101253.16
2023-12-05T13:10:21.011Z,101253.75
2023-12-05T13:12:31.652Z,101252.02
2023-12-05T13:14:42.186Z,101247.30
2023-12-05T13:16:52.400Z,101240.59
2023-12-05T13:19:02.863Z,101242.25
2023-12-05T13:21:13.723Z,101231.79
2023-12-05T13:23:24.153Z,101229.68
2023-12-05T13:25:43.040Z,101218.17
2023-12-05T13:27:56.888Z,101211.55
2023-12-05T13:30:08.536Z,101206.98
2023-12-05T13:32:18.812Z,101214.58
2023-12-05T13:34:28.931Z,101223.05
2023-12-05T13:36:42.607Z,101210.93
2023-12-05T13:38:55.062Z,101215.73
2023-12-05T13:41:05.584Z,101218.94
2023-12-05T13:43:15.541Z,101220.42
2023-12-05T13:45:27.470Z,101212.12
2023-12-05T13:47:38.390Z,101211.29
2023-12-05T13:49:48.589Z,101209.80
2023-12-05T13:51:58.674Z,101209.80
2023-12-05T13:54:09.856Z,101207.98
2023-12-05T13:56:19.973Z,101213.09
2023-12-05T13:58:30.491Z,101209.63
2023-12-05T14:00:41.045Z,101214.64
2023-12-05T14:02:51.374Z,101215.73
2023-12-05T14:05:01.772Z,101222.10
2023-12-05T14:07:12.235Z,101214.22
2023-12-05T14:09:23.965Z,101203.84
2023-12-05T14:11:35.640Z,101205.59
2023-12-05T14:13:45.804Z,101210.09
2023-12-05T14:15:55.794Z,101204.93
2023-12-05T14:18:07.805Z,101194.91
2023-12-05T14:20:17.771Z,101208.24
2023-12-05T14:22:27.942Z,101200.36
2023-12-05T14:24:38.173Z,101198.42
2023-12-05T14:26:47.973Z,101203.70
2023-12-05T14:28:57.941Z,101206.82
2023-12-05T14:31:09.059Z,101204.67
2023-12-05T14:33:19.247Z,101198.05
2023-12-05T14:35:28.974Z,101209.66
2023-12-05T14:37:39.588Z,101211.41
2023-12-05T14:39:49.935Z,101210.47
2023-12-05T14:42:00.075Z,101214.39
2023-12-05T14:44:09.978Z,101214.65
2023-12-05T14:46:20.376Z,101208.48
2023-12-05T14:48:30.703Z,101205.95
2023-12-05T14:50:40.850Z,101209.44
2023-12-05T14:52:51.293Z,101217.35
2023-12-05T14:55:01.453Z,101211.55
2023-12-05T14:57:11.836Z,101206.85
2023-12-05T15:39:13.603Z,101247.79
2023-12-05T15:41:46.166Z,101250.11
2023-12-05T15:44:16.521Z,101250.41
2023-12-05T15:46:46.720Z,101259.54
2023-12-05T15:49:16.884Z,101258.98
2023-12-05T15:51:47.052Z,101265.02
2023-12-05T15:54:19.524Z,101267.34
2023-12-05T15:56:51.124Z,101274.34
2023-12-05T15:59:22.028Z,101279.95
2023-12-05T16:01:52.707Z,101277.42
2023-12-05T16:04:23.262Z,101280.95
2023-12-05T16:06:53.505Z,101279.98
2023-12-05T16:09:25.220Z,101287.98
2023-12-05T16:11:57.605Z,101293.63
2023-12-05T16:14:27.979Z,101297.02
2023-12-05T16:16:58.590Z,101298.51
2023-12-05T16:19:29.545Z,101309.29
2023-12-05T16:22:00.163Z,101316.55
2023-12-05T16:24:30.507Z,101321.48
2023-12-05T16:27:00.677Z,101327.03
2023-12-05T16:29:30.899Z,101329.19
2023-12-05T16:32:01.037Z,101334.61
2023-12-05T16:34:31.972Z,101334.29
2023-12-05T16:37:02.306Z,101340.98
2023-12-05T16:39:33.015Z,101340.25
2023-12-05T16:42:03.437Z,101343.94
2023-12-05T16:44:33.675Z,101345.40
2023-12-05T16:47:03.617Z,101347.27
2023-12-05T16:49:34.198Z,101353.20
2023-12-05T16:52:04.437Z,101358.95
2023-12-05T16:54:34.781Z,101360.00
2023-12-05T16:57:05.048Z,101357.61
2023-12-05T16:59:35.799Z,101361.22
2023-12-05T17:02:05.877Z,101365.36
2023-12-05T17:04:36.661Z,101366.27
2023-12-05T17:07:07.197Z,101368.16
2023-12-05T17:09:37.511Z,101373.50
2023-12-05T17:12:08.763Z,101374.91
2023-12-05T17:14:39.212Z,101377.54
2023-12-05T17:17:09.466Z,101374.15
2023-12-05T17:19:40.000Z,101372.33
2023-12-05T17:22:10.864Z,101368.67
2023-12-05T17:24:43.395Z,101367.59
2023-12-05T17:27:14.473Z,101365.60
2023-12-05T17:29:45.810Z,101361.20
2023-12-05T17:32:18.335Z,101362.18
2023-12-05T17:34:48.581Z,101362.95
2023-12-05T17:37:19.290Z,101362.48
2023-12-05T17:39:49.709Z,101357.83
2023-12-05T17:42:21.177Z,101354.25
2023-12-05T17:44:53.448Z,101346.17
2023-12-05T17:47:25.979Z,101342.03
2023-12-05T17:49:58.921Z,101339.83
2023-12-05T17:52:29.617Z,101342.55
2023-12-05T17:55:00.319Z,101348.04
2023-12-05T17:57:31.224Z,101346.01
2023-12-05T18:00:02.086Z,101357.66
2023-12-05T18:02:36.122Z,101360.35
2023-12-05T18:05:08.934Z,101364.64
2023-12-05T18:07:54.176Z,101365.92
2023-12-05T18:10:28.905Z,101369.21
2023-12-05T18:13:00.784Z,101378.73
2023-12-05T18:15:31.596Z,101383.08
2023-12-05T18:18:02.200Z,101385.77
2023-12-05T18:20:32.881Z,101392.70
2023-12-05T18:23:03.532Z,101391.70
2023-12-05T18:25:34.711Z,101398.25
2023-12-05T18:28:05.195Z,101398.39
2023-12-05T18:30:36.868Z,101388.24
2023-12-05T18:33:07.099Z,101388.23
2023-12-05T18:35:37.446Z,101380.45
2023-12-05T18:38:07.914Z,101367.94
2023-12-05T18:40:38.170Z,101363.48
2023-12-05T18:43:09.138Z,101358.55
2023-12-05T18:45:39.422Z,101360.91
2023-12-05T18:48:10.695Z,101361.52
2023-12-05T18:50:41.076Z,101362.79
2023-12-05T18:53:11.167Z,101361.11
2023-12-05T18:55:42.001Z,101358.44
2023-12-05T18:58:12.968Z,101357.42
2023-12-05T19:00:43.490Z,101357.93
2023-12-05T19:03:13.792Z,101358.35
2023-12-05T19:05:44.381Z,101365.55
2023-12-05T19:08:14.543Z,101361.38
2023-12-05T19:10:45.395Z,101363.66
2023-12-05T19:13:15.907Z,101361.17
2023-12-05T19:15:40.077Z,101366.26
2023-12-05T19:18:10.502Z,101369.70
2023-12-05T19:20:41.343Z,101374.85
2023-12-05T19:23:11.561Z,101373.13
2023-12-05T19:25:43.991Z,101373.42
2023-12-05T19:28:14.686Z,101373.56
2023-12-05T19:30:48.336Z,101372.05
2023-12-05T19:33:19.024Z,101368.20
2023-12-05T19:35:50.071Z,101359.56
2023-12-05T19:38:21.065Z,101362.11
2023-12-05T19:40:54.876Z,101362.61
2023-12-05T19:43:26.207Z,101359.61
2023-12-05T19:45:56.559Z,101357.11
2023-12-05T19:48:27.298Z,101355.90
2023-12-05T19:50:57.750Z,101349.54
2023-12-05T19:53:28.640Z,101350.02
2023-12-05T19:55:59.532Z,101346.41
2023-12-05T19:58:30.267Z,101345.74
2023-12-05T20:01:01.218Z,101348.64
2023-12-05T20:03:31.713Z,101349.00
2023-12-05T20:06:03.054Z,101350.94
2023-12-05T20:08:33.264Z,101359.98
2023-12-05T20:11:04.105Z,101362.22
2023-12-05T20:13:35.047Z,101363.70
2023-12-05T20:16:05.561Z,101364.73
2023-12-05T20:18:36.268Z,101375.09
2023-12-05T20:20:46.843Z,101376.41
2023-12-05T20:23:19.806Z,101380.34
2023-12-05T20:25:33.372Z,101380.55
2023-12-05T20:27:55.019Z,101382.35
2023-12-05T20:30:26.087Z,101380.58
2023-12-05T20:32:36.263Z,101392.63
2023-12-05T20:35:07.516Z,101406.77
2023-12-05T20:37:38.237Z,101408.75
2023-12-05T20:40:10.024Z,101406.51
2023-12-05T20:42:40.681Z,101396.95
2023-12-05T20:45:14.515Z,101397.64
2023-12-05T20:47:36.208Z,101404.51
2023-12-05T20:50:08.160Z,101409.73
2023-12-05T20:52:24.543Z,101411.09
2023-12-05T20:54:53.081Z,101411.80
2023-12-05T20:57:23.488Z,101407.95
2023-12-05T20:59:53.950Z,101407.55
2023-12-05T21:02:12.677Z,101409.27
2023-12-05T21:04:43.195Z,101403.42
2023-12-05T21:07:15.768Z,101401.38
2023-12-05T21:09:48.025Z,101389.34
2023-12-05T21:12:18.801Z,101385.39
2023-12-05T21:14:49.642Z,101380.69
2023-12-05T21:17:20.318Z,101378.39
2023-12-05T21:19:51.273Z,101372.98
2023-12-05T21:22:21.344Z,101376.77
2023-12-05T21:24:51.934Z,101381.00
2023-12-05T21:27:22.434Z,101383.39
2023-12-05T21:29:52.802Z,101387.04
2023-12-05T21:32:23.046Z,101391.73
2023-12-05T21:34:54.070Z,101399.90
2023-12-05T21:37:25.240Z,101414.18
2023-12-05T21:39:55.372Z,101422.71
2023-12-05T21:42:18.272Z,101427.24
2023-12-05T21:44:48.392Z,101407.05
2023-12-05T21:47:18.706Z,101387.90
2023-12-05T21:49:52.063Z,101377.77
2023-12-05T21:52:20.674Z,101384.11
2023-12-05T21:54:50.984Z,101393.39
2023-12-05T21:57:21.467Z,101390.67
2023-12-05T21:59:51.798Z,101389.99
2023-12-05T22:02:20.850Z,101379.75
2023-12-05T22:04:51.687Z,101369.60
2023-12-05T22:07:22.480Z,101352.83
2023-12-05T22:09:53.348Z,101347.62
2023-12-05T22:12:23.898Z,101342.19
2023-12-05T22:14:44.026Z,101361.06
2023-12-05T22:17:14.772Z,101353.77
2023-12-05T22:19:45.095Z,101371.55
2023-12-05T22:22:08.656Z,101367.55
2023-12-05T22:24:39.087Z,101369.96
2023-12-05T22:27:10.011Z,101375.60
2023-12-05T22:29:41.999Z,101369.52
2023-12-05T22:32:12.610Z,101376.06
2023-12-05T22:34:42.970Z,101373.36
2023-12-05T22:37:13.567Z,101367.85
2023-12-05T22:39:44.999Z,101373.27
2023-12-05T22:42:15.270Z,101367.41
2023-12-05T22:44:47.952Z,101359.63
2023-12-05T22:47:18.904Z,101357.23
2023-12-05T22:49:50.896Z,101347.75
2023-12-05T22:52:21.600Z,101348.89
2023-12-05T22:54:51.836Z,101351.61
2023-12-05T22:57:24.140Z,101364.77
2023-12-05T22:59:54.200Z,101376.55
2023-12-05T23:02:24.605Z,101383.02
2023-12-05T23:04:55.400Z,101370.63
2023-12-05T23:07:26.269Z,101345.81
2023-12-05T23:09:57.044Z,101329.07
2023-12-05T23:12:27.639Z,101314.06
2023-12-05T23:14:57.870Z,101315.94
2023-12-05T23:17:28.119Z,101316.75
2023-12-05T23:19:58.376Z,101312.66
2023-12-05T23:22:29.216Z,101310.93
2023-12-05T23:24:59.769Z,101312.86
2023-12-05T23:27:40.522Z,101308.94
2023-12-05T23:30:13.369Z,101299.50
2023-12-05T23:32:43.808Z,101290.15
2023-12-05T23:35:14.482Z,101287.88
2023-12-05T23:37:45.246Z,101284.14
2023-12-05T23:40:15.992Z,101279.20
2023-12-05T23:42:39.690Z,101269.06
2023-12-05T23:45:11.720Z,101262.00
2023-12-05T23:47:41.987Z,101259.32
2023-12-05T23:50:13.512Z,101259.75
2023-12-05T23:52:44.228Z,101252.11
2023-12-05T23:55:15.015Z,101258.10
2023-12-05T23:57:45.814Z,101268.28
